Impacts METAR Board
IDs:

KGYB - Giddings/Lee Cnty, TX, US

Updated at: 1000 UTC 13 Aug 2022
Potential Impact None Slight Moderate High
Time 12/22Z 12/23Z 13/00Z 13/01Z 13/02Z 13/03Z 13/04Z 13/05Z 13/06Z 13/07Z 13/08Z 13/09Z 13/10Z
Temp92 87 82 82 80 79 77 76 77 76 75 75 74
Dewpt69 72 73 74 74 74 74 74 74 73 73 73 73
Altim29.93 29.93 29.94 29.95 29.96 29.98 30.00 30.00 30.00 29.99 29.99 29.99 30.00
VIS10 10 10 10 10 10 10 10 10 10 10 10 10
CIG-- -- -- -- -- -- -- -- -- -- -- -- --
CoverSCTCLRSCTCLRCLRCLRCLRCLRCLRCLRCLRCLRCLR
FltCatVFRVFRVFRVFRVFRVFRVFRVFRVFRVFRVFRVFRVFR
WX--------------------------
WDir330180160000000000330
WSpd5 5 4 0 0 0 0 0 0 0 0 0 3
WGst-- -- -- -- -- -- -- -- -- -- -- -- --
Raw hourly METARs
KGYB 122155Z AUTO 33005KT 10SM SCT080 SCT090 33/20 A2993 RMK AO2 T03310204
KGYB 122255Z AUTO 18005KT 10SM CLR 30/22 A2993 RMK AO2 T03030220
KGYB 122355Z AUTO 16004KT 10SM SCT020 SCT036 SCT065 28/23 A2994 RMK AO2 P0001 60001 T02770230 10362 20276
KGYB 130055Z AUTO 00000KT 10SM CLR 28/23 A2995 RMK AO2 T02750231
KGYB 130155Z AUTO 00000KT 10SM CLR 27/23 A2996 RMK AO2 T02650231
KGYB 130255Z AUTO 00000KT 10SM CLR 26/23 A2998 RMK AO2 T02590234
KGYB 130355Z AUTO 00000KT 10SM CLR 25/23 A3000 RMK AO2 T02520233
KGYB 130455Z AUTO 00000KT 10SM CLR 25/24 A3000 RMK AO2 T02470235
KGYB 130555Z AUTO 00000KT 10SM CLR 25/23 A3000 RMK AO2 T02500234 10277 20246 403620236
KGYB 130655Z AUTO 00000KT 10SM CLR 25/23 A2999 RMK AO2 T02470230
KGYB 130755Z AUTO 00000KT 10SM CLR 24/23 A2999 RMK AO2 T02390230
KGYB 130855Z AUTO 00000KT 10SM CLR 24/23 A2999 RMK AO2 T02370229
KGYB 130955Z AUTO 33003KT 10SM CLR 24/23 A3000 RMK AO2 T02360225